createdAt,value
2019-03-31T00:03:00.908Z,45.33
2019-03-31T00:07:56.813Z,44.53
2019-03-31T00:12:52.842Z,48.77
2019-03-31T00:17:48.828Z,46.70
2019-03-31T00:22:45.635Z,47.67
2019-03-31T00:27:41.543Z,44.97
2019-03-31T00:32:37.455Z,46.17
2019-03-31T00:37:33.374Z,48.23
2019-03-31T00:42:29.289Z,46.10
2019-03-31T00:47:25.198Z,46.80
2019-03-31T00:52:21.114Z,45.60
2019-03-31T00:57:17.055Z,44.43
2019-03-31T01:02:16.145Z,43.50
2019-03-31T01:07:12.466Z,43.80
2019-03-31T01:12:08.486Z,36.33
2019-03-31T01:17:06.616Z,41.50
2019-03-31T01:22:02.927Z,37.20
2019-03-31T01:26:58.849Z,35.00
2019-03-31T01:31:55.654Z,37.63
2019-03-31T01:36:51.573Z,36.20
2019-03-31T01:41:47.583Z,34.83
2019-03-31T01:46:43.538Z,38.53
2019-03-31T01:51:39.444Z,41.90
2019-03-31T01:56:35.388Z,41.87
2019-03-31T02:01:31.398Z,45.00
2019-03-31T02:06:27.386Z,32.17
2019-03-31T02:11:23.293Z,39.40
2019-03-31T02:16:19.209Z,33.43
2019-03-31T02:21:15.231Z,43.97
2019-03-31T02:26:11.143Z,40.53
2019-03-31T02:31:07.156Z,45.43
2019-03-31T02:36:03.175Z,43.00
2019-03-31T02:40:59.190Z,45.30
2019-03-31T02:45:55.102Z,46.80
2019-03-31T02:50:52.021Z,47.90
2019-03-31T02:55:48.166Z,45.33
2019-03-31T03:00:44.406Z,43.87
2019-03-31T03:05:40.708Z,45.10
2019-03-31T03:10:37.239Z,47.23
2019-03-31T03:16:02.983Z,46.77
2019-03-31T03:20:58.999Z,39.63
2019-03-31T03:25:56.795Z,50.10
2019-03-31T03:30:52.842Z,47.80
2019-03-31T03:35:48.860Z,50.40
2019-03-31T03:40:44.864Z,50.30
2019-03-31T03:45:40.775Z,46.07
2019-03-31T03:50:36.697Z,52.40
2019-03-31T03:55:32.605Z,48.20
2019-03-31T04:00:28.546Z,50.40
2019-03-31T04:05:24.557Z,49.27
2019-03-31T04:10:44.417Z,49.27
2019-03-31T04:15:40.400Z,49.63
2019-03-31T04:20:39.261Z,48.50
2019-03-31T04:25:34.119Z,45.87
2019-03-31T04:30:30.046Z,48.87
2019-03-31T04:35:25.988Z,40.70
2019-03-31T04:40:21.918Z,42.90
2019-03-31T04:45:17.810Z,39.70
2019-03-31T04:50:13.725Z,28.57
2019-03-31T04:55:09.793Z,43.10
2019-03-31T05:00:06.004Z,43.87
2019-03-31T05:05:02.111Z,33.67
2019-03-31T05:09:58.020Z,41.43
2019-03-31T05:14:53.926Z,40.50
2019-03-31T05:19:49.837Z,42.70
2019-03-31T05:24:46.478Z,43.70
2019-03-31T05:29:42.975Z,44.80
2019-03-31T05:34:38.847Z,37.10
2019-03-31T05:39:34.753Z,40.80
2019-03-31T05:44:30.659Z,30.83
2019-03-31T05:49:26.590Z,44.80
2019-03-31T05:54:23.437Z,43.63
2019-03-31T05:59:19.449Z,39.37
2019-03-31T06:04:15.383Z,38.20
2019-03-31T06:09:11.381Z,34.10
2019-03-31T06:14:07.293Z,34.00
2019-03-31T06:19:03.202Z,27.53
2019-03-31T06:24:17.016Z,32.67
2019-03-31T06:29:13.046Z,33.20
2019-03-31T06:34:08.953Z,31.50
2019-03-31T06:39:06.065Z,28.70
2019-03-31T06:44:01.976Z,27.00
2019-03-31T06:48:57.943Z,25.87
2019-03-31T06:53:53.871Z,24.27
2019-03-31T06:58:49.803Z,23.57
2019-03-31T07:03:45.720Z,20.67
2019-03-31T07:08:41.956Z,20.80
2019-03-31T07:13:37.973Z,22.53
2019-03-31T07:18:34.389Z,21.33
2019-03-31T07:23:30.488Z,21.37
2019-03-31T07:28:26.397Z,21.47
2019-03-31T07:33:22.306Z,22.43
2019-03-31T07:38:18.571Z,22.07
2019-03-31T07:43:14.723Z,14.90
2019-03-31T07:48:10.746Z,20.40
2019-03-31T07:53:06.679Z,17.40
2019-03-31T07:58:02.742Z,19.33
2019-03-31T08:03:00.295Z,13.10
2019-03-31T08:07:56.575Z,12.07
2019-03-31T08:12:52.501Z,11.87
2019-03-31T08:17:49.472Z,11.50
2019-03-31T08:22:45.584Z,11.13
2019-03-31T08:27:41.521Z,11.83
2019-03-31T08:32:37.533Z,9.00
2019-03-31T08:37:33.721Z,7.80
2019-03-31T08:42:29.646Z,6.30
2019-03-31T08:47:25.533Z,7.83
2019-03-31T08:52:21.516Z,6.77
2019-03-31T08:57:17.504Z,7.30
2019-03-31T09:02:30.852Z,7.67
2019-03-31T09:07:26.885Z,8.63
2019-03-31T09:12:22.868Z,7.40
2019-03-31T09:17:19.000Z,8.23
2019-03-31T09:22:15.046Z,6.40
2019-03-31T09:27:11.063Z,6.80
2019-03-31T09:32:07.042Z,5.97
2019-03-31T09:37:03.138Z,5.93
2019-03-31T09:41:59.094Z,5.63
2019-03-31T09:46:55.001Z,6.70
2019-03-31T09:51:50.969Z,6.57
2019-03-31T09:56:46.901Z,5.50
2019-03-31T10:01:42.835Z,5.90
2019-03-31T10:06:38.859Z,7.37
2019-03-31T10:11:34.888Z,9.27
2019-03-31T10:16:30.804Z,7.87
2019-03-31T10:21:26.721Z,8.00
2019-03-31T10:26:31.901Z,6.30
2019-03-31T10:31:20.565Z,7.27
2019-03-31T10:36:16.562Z,8.43
2019-03-31T10:41:12.487Z,8.77
2019-03-31T10:46:08.397Z,9.03
2019-03-31T10:51:04.331Z,8.97
2019-03-31T10:56:00.318Z,9.00
2019-03-31T11:00:56.235Z,10.00
2019-03-31T11:05:52.169Z,9.80
2019-03-31T11:10:48.093Z,9.37
2019-03-31T11:15:44.114Z,8.40
2019-03-31T11:20:40.030Z,8.57
2019-03-31T11:25:35.937Z,7.83
2019-03-31T11:30:32.224Z,7.83
2019-03-31T11:35:28.160Z,8.03
2019-03-31T11:40:24.094Z,7.00
2019-03-31T11:45:20.097Z,7.57
2019-03-31T11:50:16.415Z,6.60
2019-03-31T11:55:13.147Z,5.67
2019-03-31T12:05:23.262Z,3.03
2019-03-31T12:10:20.057Z,3.40
2019-03-31T12:15:16.210Z,3.07
2019-03-31T12:20:13.157Z,3.37
2019-03-31T12:25:09.943Z,2.60
2019-03-31T12:30:06.231Z,3.30
2019-03-31T12:35:04.233Z,3.33
2019-03-31T12:40:00.239Z,2.00
2019-03-31T12:44:56.372Z,3.13
2019-03-31T12:49:52.297Z,2.20
2019-03-31T12:54:50.947Z,2.50
2019-03-31T12:59:46.916Z,2.00
2019-03-31T13:04:42.822Z,2.37
2019-03-31T13:09:38.765Z,2.20
2019-03-31T13:14:34.680Z,2.23
2019-03-31T13:19:30.597Z,2.47
2019-03-31T13:29:46.618Z,2.40
2019-03-31T13:34:42.532Z,2.30
2019-03-31T13:39:38.462Z,2.80
2019-03-31T13:44:34.401Z,2.23
2019-03-31T13:49:30.332Z,3.90
2019-03-31T13:54:27.075Z,2.13
2019-03-31T13:59:23.094Z,3.27
2019-03-31T14:04:19.015Z,2.97
2019-03-31T14:09:14.973Z,2.73
2019-03-31T14:14:10.893Z,3.80
2019-03-31T14:19:06.835Z,2.90
2019-03-31T14:24:02.883Z,4.60
2019-03-31T14:29:01.276Z,4.53
2019-03-31T14:33:57.312Z,3.77
2019-03-31T14:38:53.266Z,4.43
2019-03-31T14:43:49.184Z,3.97
2019-03-31T14:48:45.135Z,4.17
2019-03-31T14:53:41.077Z,4.10
2019-03-31T14:58:37.033Z,3.90
2019-03-31T15:03:32.948Z,3.43
2019-03-31T15:08:28.888Z,4.53
2019-03-31T15:13:24.811Z,3.10
2019-03-31T15:18:24.720Z,4.70
2019-03-31T15:23:29.151Z,3.70
2019-03-31T15:28:28.027Z,2.77
2019-03-31T15:33:26.355Z,3.00
2019-03-31T15:38:25.725Z,2.10
2019-03-31T15:43:22.623Z,2.60
2019-03-31T15:48:18.624Z,2.13
2019-03-31T15:53:14.812Z,2.73
2019-03-31T15:58:10.835Z,2.70
2019-03-31T16:03:07.402Z,2.23
2019-03-31T16:08:03.395Z,2.50
2019-03-31T16:12:59.478Z,2.13
2019-03-31T16:17:55.400Z,2.13
2019-03-31T16:22:51.314Z,1.80
2019-03-31T16:27:47.235Z,1.70
2019-03-31T16:32:43.371Z,1.83
2019-03-31T16:37:40.106Z,2.20
2019-03-31T16:42:38.646Z,2.27
2019-03-31T16:47:39.762Z,2.70
2019-03-31T16:52:38.622Z,2.80
2019-03-31T16:57:36.105Z,2.17
2019-03-31T17:02:32.966Z,2.37
2019-03-31T17:07:29.009Z,2.07
2019-03-31T17:12:26.108Z,2.33
2019-03-31T17:17:22.549Z,3.10
2019-03-31T17:22:18.491Z,1.90
2019-03-31T17:27:14.518Z,1.90
2019-03-31T17:32:11.067Z,2.30
2019-03-31T17:37:06.982Z,1.63
2019-03-31T17:42:02.927Z,1.97
2019-03-31T17:46:58.841Z,1.57
2019-03-31T17:51:54.784Z,1.70
2019-03-31T17:56:50.705Z,1.90
2019-03-31T18:01:52.219Z,2.10
2019-03-31T18:06:52.953Z,1.33
2019-03-31T18:11:56.780Z,1.20
2019-03-31T18:16:55.092Z,1.40
2019-03-31T18:21:51.781Z,2.00
2019-03-31T18:26:48.565Z,2.00
2019-03-31T18:31:44.520Z,1.60
2019-03-31T18:36:40.469Z,2.13
2019-03-31T18:41:36.404Z,1.73
2019-03-31T18:46:32.688Z,1.50
2019-03-31T18:51:28.808Z,1.60
2019-03-31T18:56:45.009Z,1.57
2019-03-31T19:01:42.974Z,2.40
2019-03-31T19:06:40.807Z,1.37
2019-03-31T19:11:53.698Z,2.40
2019-03-31T19:16:51.556Z,1.90
2019-03-31T19:21:55.488Z,1.80
2019-03-31T19:27:09.875Z,1.80
2019-03-31T19:32:07.747Z,1.73
2019-03-31T19:37:20.763Z,2.47
2019-03-31T19:42:18.592Z,1.80
2019-03-31T19:47:20.977Z,2.10
2019-03-31T19:52:35.854Z,1.50
2019-03-31T19:57:50.425Z,1.57
2019-03-31T20:02:57.500Z,1.80
2019-03-31T20:08:13.496Z,1.77
2019-03-31T20:13:17.142Z,2.00
2019-03-31T20:18:15.025Z,1.27
2019-03-31T20:23:15.813Z,1.07
2019-03-31T20:28:16.446Z,2.43
2019-03-31T20:33:14.306Z,1.70
2019-03-31T20:38:12.220Z,1.70
2019-03-31T20:43:12.791Z,1.27
2019-03-31T20:48:08.812Z,1.67
2019-03-31T20:53:04.877Z,1.27
2019-03-31T20:58:00.923Z,1.23
2019-03-31T21:02:56.861Z,1.03
2019-03-31T21:07:52.800Z,1.47
2019-03-31T21:12:48.840Z,1.30
2019-03-31T21:17:44.864Z,1.33
2019-03-31T21:22:40.894Z,2.30
2019-03-31T21:27:36.827Z,1.20
2019-03-31T21:32:32.746Z,1.23
2019-03-31T21:37:28.684Z,2.10
2019-03-31T21:42:24.651Z,1.30
2019-03-31T21:47:20.567Z,2.23
2019-03-31T21:52:16.496Z,1.07
2019-03-31T21:57:12.438Z,1.17
2019-03-31T22:02:08.350Z,2.13
2019-03-31T22:07:04.284Z,0.90
2019-03-31T22:12:00.196Z,1.47
2019-03-31T22:16:56.216Z,1.30
2019-03-31T22:21:52.127Z,0.80
2019-03-31T22:26:48.064Z,2.20
2019-03-31T22:31:44.013Z,1.90
2019-03-31T22:36:39.977Z,1.20
2019-03-31T22:41:35.899Z,1.20
2019-03-31T22:46:31.860Z,1.80
2019-03-31T22:51:27.783Z,1.03
2019-03-31T22:56:23.732Z,1.10
2019-03-31T23:01:19.694Z,1.27
2019-03-31T23:06:15.613Z,1.07
2019-03-31T23:11:11.547Z,2.20
2019-03-31T23:16:07.464Z,1.37
2019-03-31T23:21:03.400Z,1.33
2019-03-31T23:25:59.344Z,2.00
2019-03-31T23:30:55.279Z,1.00
2019-03-31T23:35:51.195Z,1.63
2019-03-31T23:40:47.214Z,1.60
2019-03-31T23:45:43.212Z,1.70
2019-03-31T23:50:39.159Z,0.70
2019-03-31T23:55:35.276Z,1.50
